sensor_id;sensor_type;location;lat;lon;timestamp;P1;durP1;ratioP1;P2;durP2;ratioP2
22924;SDS011;11628;51.072;3.712;2023-04-15T00:00:09;4.03;;;3.72;;
22924;SDS011;11628;51.072;3.712;2023-04-15T00:02:35;4.00;;;3.33;;
22924;SDS011;11628;51.072;3.712;2023-04-15T00:05:01;4.75;;;3.58;;
22924;SDS011;11628;51.072;3.712;2023-04-15T00:07:27;4.15;;;3.75;;
22924;SDS011;11628;51.072;3.712;2023-04-15T00:09:53;4.47;;;4.07;;
22924;SDS011;11628;51.072;3.712;2023-04-15T00:12:21;4.75;;;4.13;;
22924;SDS011;11628;51.072;3.712;2023-04-15T00:14:48;4.80;;;4.30;;
22924;SDS011;11628;51.072;3.712;2023-04-15T00:17:14;4.60;;;4.20;;
22924;SDS011;11628;51.072;3.712;2023-04-15T00:19:40;4.55;;;4.15;;
22924;SDS011;11628;51.072;3.712;2023-04-15T00:22:05;4.32;;;3.53;;
22924;SDS011;11628;51.072;3.712;2023-04-15T00:24:32;5.18;;;3.72;;
22924;SDS011;11628;51.072;3.712;2023-04-15T00:26:58;3.92;;;3.53;;
22924;SDS011;11628;51.072;3.712;2023-04-15T00:29:24;4.43;;;3.58;;
22924;SDS011;11628;51.072;3.712;2023-04-15T00:31:50;3.90;;;3.50;;
22924;SDS011;11628;51.072;3.712;2023-04-15T00:34:16;4.13;;;3.67;;
22924;SDS011;11628;51.072;3.712;2023-04-15T00:36:42;4.25;;;3.85;;
22924;SDS011;11628;51.072;3.712;2023-04-15T00:39:08;4.65;;;3.65;;
22924;SDS011;11628;51.072;3.712;2023-04-15T00:41:34;5.70;;;3.60;;
22924;SDS011;11628;51.072;3.712;2023-04-15T00:44:03;4.20;;;3.80;;
22924;SDS011;11628;51.072;3.712;2023-04-15T00:46:30;5.35;;;4.55;;
22924;SDS011;11628;51.072;3.712;2023-04-15T00:48:59;5.40;;;4.45;;
22924;SDS011;11628;51.072;3.712;2023-04-15T00:51:26;5.32;;;4.82;;
22924;SDS011;11628;51.072;3.712;2023-04-15T00:53:52;5.18;;;4.68;;
22924;SDS011;11628;51.072;3.712;2023-04-15T00:56:19;6.38;;;4.95;;
22924;SDS011;11628;51.072;3.712;2023-04-15T00:58:48;6.03;;;5.07;;
22924;SDS011;11628;51.072;3.712;2023-04-15T01:01:16;6.38;;;5.65;;
22924;SDS011;11628;51.072;3.712;2023-04-15T01:03:46;5.72;;;5.10;;
22924;SDS011;11628;51.072;3.712;2023-04-15T01:06:13;7.53;;;4.65;;
22924;SDS011;11628;51.072;3.712;2023-04-15T01:08:39;6.00;;;5.40;;
22924;SDS011;11628;51.072;3.712;2023-04-15T01:11:05;5.40;;;4.95;;
22924;SDS011;11628;51.072;3.712;2023-04-15T01:13:31;5.70;;;5.10;;
22924;SDS011;11628;51.072;3.712;2023-04-15T01:15:58;5.05;;;4.57;;
22924;SDS011;11628;51.072;3.712;2023-04-15T01:18:24;6.78;;;5.35;;
22924;SDS011;11628;51.072;3.712;2023-04-15T01:20:51;5.40;;;4.90;;
22924;SDS011;11628;51.072;3.712;2023-04-15T01:23:17;5.63;;;5.10;;
22924;SDS011;11628;51.072;3.712;2023-04-15T01:25:43;5.95;;;5.38;;
22924;SDS011;11628;51.072;3.712;2023-04-15T01:28:09;6.10;;;5.50;;
22924;SDS011;11628;51.072;3.712;2023-04-15T01:30:35;5.60;;;5.13;;
22924;SDS011;11628;51.072;3.712;2023-04-15T01:33:01;7.13;;;5.82;;
22924;SDS011;11628;51.072;3.712;2023-04-15T01:35:27;5.30;;;4.70;;
22924;SDS011;11628;51.072;3.712;2023-04-15T01:37:53;5.35;;;4.68;;
22924;SDS011;11628;51.072;3.712;2023-04-15T01:40:23;8.48;;;5.70;;
22924;SDS011;11628;51.072;3.712;2023-04-15T01:42:49;7.13;;;6.07;;
22924;SDS011;11628;51.072;3.712;2023-04-15T01:45:16;5.07;;;4.57;;
22924;SDS011;11628;51.072;3.712;2023-04-15T01:47:42;4.78;;;4.35;;
22924;SDS011;11628;51.072;3.712;2023-04-15T01:50:07;6.00;;;4.43;;
22924;SDS011;11628;51.072;3.712;2023-04-15T01:52:34;5.20;;;4.70;;
22924;SDS011;11628;51.072;3.712;2023-04-15T01:54:59;4.47;;;4.07;;
22924;SDS011;11628;51.072;3.712;2023-04-15T01:57:25;4.95;;;4.40;;
22924;SDS011;11628;51.072;3.712;2023-04-15T01:59:51;4.80;;;4.28;;
22924;SDS011;11628;51.072;3.712;2023-04-15T02:02:17;4.80;;;4.22;;
22924;SDS011;11628;51.072;3.712;2023-04-15T02:04:42;5.10;;;4.70;;
22924;SDS011;11628;51.072;3.712;2023-04-15T02:07:08;4.68;;;3.90;;
22924;SDS011;11628;51.072;3.712;2023-04-15T02:09:34;4.75;;;4.05;;
22924;SDS011;11628;51.072;3.712;2023-04-15T02:12:00;4.28;;;3.88;;
22924;SDS011;11628;51.072;3.712;2023-04-15T02:14:25;4.22;;;3.90;;
22924;SDS011;11628;51.072;3.712;2023-04-15T02:16:51;4.75;;;4.10;;
22924;SDS011;11628;51.072;3.712;2023-04-15T02:19:17;6.18;;;4.30;;
22924;SDS011;11628;51.072;3.712;2023-04-15T02:21:42;4.75;;;4.20;;
22924;SDS011;11628;51.072;3.712;2023-04-15T02:24:08;6.28;;;4.40;;
22924;SDS011;11628;51.072;3.712;2023-04-15T02:26:36;4.97;;;4.47;;
22924;SDS011;11628;51.072;3.712;2023-04-15T02:29:01;5.28;;;4.78;;
22924;SDS011;11628;51.072;3.712;2023-04-15T02:31:27;5.00;;;4.50;;
22924;SDS011;11628;51.072;3.712;2023-04-15T02:33:53;5.50;;;5.00;;
22924;SDS011;11628;51.072;3.712;2023-04-15T02:36:19;5.60;;;5.10;;
22924;SDS011;11628;51.072;3.712;2023-04-15T02:38:45;5.50;;;5.00;;
22924;SDS011;11628;51.072;3.712;2023-04-15T02:41:11;6.78;;;5.15;;
22924;SDS011;11628;51.072;3.712;2023-04-15T02:43:37;6.00;;;5.50;;
22924;SDS011;11628;51.072;3.712;2023-04-15T02:46:04;6.07;;;5.50;;
22924;SDS011;11628;51.072;3.712;2023-04-15T02:48:30;6.93;;;6.28;;
22924;SDS011;11628;51.072;3.712;2023-04-15T02:51:14;8.38;;;7.13;;
22924;SDS011;11628;51.072;3.712;2023-04-15T02:53:43;7.10;;;6.50;;
22924;SDS011;11628;51.072;3.712;2023-04-15T02:56:10;8.80;;;7.35;;
22924;SDS011;11628;51.072;3.712;2023-04-15T02:58:36;9.13;;;8.13;;
22924;SDS011;11628;51.072;3.712;2023-04-15T03:01:03;10.27;;;8.75;;
22924;SDS011;11628;51.072;3.712;2023-04-15T03:03:29;11.13;;;8.82;;
22924;SDS011;11628;51.072;3.712;2023-04-15T03:05:55;11.25;;;9.25;;
22924;SDS011;11628;51.072;3.712;2023-04-15T03:08:21;10.68;;;9.15;;
22924;SDS011;11628;51.072;3.712;2023-04-15T03:10:47;10.30;;;9.30;;
22924;SDS011;11628;51.072;3.712;2023-04-15T03:13:16;10.23;;;9.23;;
22924;SDS011;11628;51.072;3.712;2023-04-15T03:15:42;11.10;;;9.90;;
22924;SDS011;11628;51.072;3.712;2023-04-15T03:18:07;11.50;;;10.30;;
22924;SDS011;11628;51.072;3.712;2023-04-15T03:20:33;11.45;;;10.23;;
22924;SDS011;11628;51.072;3.712;2023-04-15T03:22:59;12.27;;;10.93;;
22924;SDS011;11628;51.072;3.712;2023-04-15T03:25:25;12.00;;;10.82;;
22924;SDS011;11628;51.072;3.712;2023-04-15T03:27:51;12.88;;;11.60;;
22924;SDS011;11628;51.072;3.712;2023-04-15T03:30:17;17.75;;;12.52;;
22924;SDS011;11628;51.072;3.712;2023-04-15T03:32:42;13.43;;;12.02;;
22924;SDS011;11628;51.072;3.712;2023-04-15T03:35:08;13.05;;;11.75;;
22924;SDS011;11628;51.072;3.712;2023-04-15T03:37:34;13.18;;;11.88;;
22924;SDS011;11628;51.072;3.712;2023-04-15T03:39:59;12.88;;;11.55;;
22924;SDS011;11628;51.072;3.712;2023-04-15T03:42:25;14.68;;;12.38;;
22924;SDS011;11628;51.072;3.712;2023-04-15T03:44:51;14.07;;;12.60;;
22924;SDS011;11628;51.072;3.712;2023-04-15T03:47:17;13.68;;;12.35;;
22924;SDS011;11628;51.072;3.712;2023-04-15T03:49:42;15.07;;;13.48;;
22924;SDS011;11628;51.072;3.712;2023-04-15T03:52:08;16.58;;;13.20;;
22924;SDS011;11628;51.072;3.712;2023-04-15T03:54:34;15.57;;;13.98;;
22924;SDS011;11628;51.072;3.712;2023-04-15T03:56:59;16.17;;;13.85;;
22924;SDS011;11628;51.072;3.712;2023-04-15T03:59:25;15.77;;;13.70;;
22924;SDS011;11628;51.072;3.712;2023-04-15T04:01:51;17.05;;;14.15;;
22924;SDS011;11628;51.072;3.712;2023-04-15T04:04:17;15.73;;;14.13;;
22924;SDS011;11628;51.072;3.712;2023-04-15T04:06:42;16.05;;;13.98;;
22924;SDS011;11628;51.072;3.712;2023-04-15T04:09:08;16.58;;;14.88;;
22924;SDS011;11628;51.072;3.712;2023-04-15T04:11:34;18.42;;;15.05;;
22924;SDS011;11628;51.072;3.712;2023-04-15T04:13:59;15.50;;;13.90;;
22924;SDS011;11628;51.072;3.712;2023-04-15T04:16:25;17.33;;;15.63;;
22924;SDS011;11628;51.072;3.712;2023-04-15T04:18:51;17.20;;;15.50;;
22924;SDS011;11628;51.072;3.712;2023-04-15T04:21:16;19.10;;;16.52;;
22924;SDS011;11628;51.072;3.712;2023-04-15T04:23:42;21.75;;;19.20;;
22924;SDS011;11628;51.072;3.712;2023-04-15T04:26:08;23.08;;;19.08;;
22924;SDS011;11628;51.072;3.712;2023-04-15T04:28:34;21.15;;;17.70;;
22924;SDS011;11628;51.072;3.712;2023-04-15T04:31:00;18.70;;;15.55;;
22924;SDS011;11628;51.072;3.712;2023-04-15T04:33:26;21.13;;;16.60;;
22924;SDS011;11628;51.072;3.712;2023-04-15T04:35:52;21.58;;;16.17;;
22924;SDS011;11628;51.072;3.712;2023-04-15T04:38:17;19.77;;;15.35;;
22924;SDS011;11628;51.072;3.712;2023-04-15T04:40:43;23.48;;;17.17;;
22924;SDS011;11628;51.072;3.712;2023-04-15T04:43:08;26.08;;;17.00;;
22924;SDS011;11628;51.072;3.712;2023-04-15T04:45:34;18.90;;;15.57;;
22924;SDS011;11628;51.072;3.712;2023-04-15T04:48:00;21.45;;;14.82;;
22924;SDS011;11628;51.072;3.712;2023-04-15T04:50:26;17.58;;;13.65;;
22924;SDS011;11628;51.072;3.712;2023-04-15T04:52:51;17.08;;;11.52;;
22924;SDS011;11628;51.072;3.712;2023-04-15T04:55:17;16.98;;;12.10;;
22924;SDS011;11628;51.072;3.712;2023-04-15T04:57:43;15.98;;;10.88;;
22924;SDS011;11628;51.072;3.712;2023-04-15T05:00:09;14.13;;;10.10;;
22924;SDS011;11628;51.072;3.712;2023-04-15T05:02:35;11.63;;;9.68;;
22924;SDS011;11628;51.072;3.712;2023-04-15T05:05:01;13.35;;;10.55;;
22924;SDS011;11628;51.072;3.712;2023-04-15T05:07:27;13.02;;;9.52;;
22924;SDS011;11628;51.072;3.712;2023-04-15T05:09:52;11.75;;;8.88;;
22924;SDS011;11628;51.072;3.712;2023-04-15T05:12:19;10.15;;;8.70;;
22924;SDS011;11628;51.072;3.712;2023-04-15T05:14:44;12.50;;;9.05;;
22924;SDS011;11628;51.072;3.712;2023-04-15T05:17:11;14.93;;;9.27;;
22924;SDS011;11628;51.072;3.712;2023-04-15T05:19:38;11.25;;;9.35;;
22924;SDS011;11628;51.072;3.712;2023-04-15T05:22:03;10.27;;;8.40;;
22924;SDS011;11628;51.072;3.712;2023-04-15T05:24:30;12.48;;;10.13;;
22924;SDS011;11628;51.072;3.712;2023-04-15T05:26:56;16.65;;;10.70;;
22924;SDS011;11628;51.072;3.712;2023-04-15T05:29:21;14.85;;;11.32;;
22924;SDS011;11628;51.072;3.712;2023-04-15T05:31:47;21.20;;;13.02;;
22924;SDS011;11628;51.072;3.712;2023-04-15T05:34:13;19.83;;;13.25;;
22924;SDS011;11628;51.072;3.712;2023-04-15T05:36:40;18.48;;;13.10;;
22924;SDS011;11628;51.072;3.712;2023-04-15T05:39:06;18.92;;;12.88;;
22924;SDS011;11628;51.072;3.712;2023-04-15T05:41:32;17.45;;;13.73;;
22924;SDS011;11628;51.072;3.712;2023-04-15T05:43:58;15.98;;;12.50;;
22924;SDS011;11628;51.072;3.712;2023-04-15T05:46:24;15.63;;;11.80;;
22924;SDS011;11628;51.072;3.712;2023-04-15T05:48:50;17.77;;;12.95;;
22924;SDS011;11628;51.072;3.712;2023-04-15T05:51:16;17.85;;;12.07;;
22924;SDS011;11628;51.072;3.712;2023-04-15T05:53:41;14.88;;;11.85;;
22924;SDS011;11628;51.072;3.712;2023-04-15T05:56:07;18.15;;;12.43;;
22924;SDS011;11628;51.072;3.712;2023-04-15T05:58:33;15.02;;;10.75;;
22924;SDS011;11628;51.072;3.712;2023-04-15T06:00:58;14.25;;;11.18;;
22924;SDS011;11628;51.072;3.712;2023-04-15T06:03:24;14.32;;;11.18;;
22924;SDS011;11628;51.072;3.712;2023-04-15T06:05:50;11.35;;;9.57;;
22924;SDS011;11628;51.072;3.712;2023-04-15T06:08:16;12.00;;;9.35;;
22924;SDS011;11628;51.072;3.712;2023-04-15T06:10:41;14.02;;;10.20;;
22924;SDS011;11628;51.072;3.712;2023-04-15T06:13:07;13.98;;;9.55;;
22924;SDS011;11628;51.072;3.712;2023-04-15T06:15:33;11.88;;;9.20;;
22924;SDS011;11628;51.072;3.712;2023-04-15T06:17:58;12.75;;;9.48;;
22924;SDS011;11628;51.072;3.712;2023-04-15T06:20:24;13.32;;;9.95;;
22924;SDS011;11628;51.072;3.712;2023-04-15T06:22:50;12.45;;;9.88;;
22924;SDS011;11628;51.072;3.712;2023-04-15T06:25:16;13.50;;;9.82;;
22924;SDS011;11628;51.072;3.712;2023-04-15T06:27:42;11.52;;;9.23;;
22924;SDS011;11628;51.072;3.712;2023-04-15T06:30:08;10.48;;;9.25;;
22924;SDS011;11628;51.072;3.712;2023-04-15T06:32:34;11.40;;;9.38;;
22924;SDS011;11628;51.072;3.712;2023-04-15T06:34:59;12.02;;;10.00;;
22924;SDS011;11628;51.072;3.712;2023-04-15T06:37:25;12.90;;;8.77;;
22924;SDS011;11628;51.072;3.712;2023-04-15T06:39:51;12.52;;;10.20;;
22924;SDS011;11628;51.072;3.712;2023-04-15T06:42:16;12.95;;;9.77;;
22924;SDS011;11628;51.072;3.712;2023-04-15T06:44:42;14.38;;;10.38;;
22924;SDS011;11628;51.072;3.712;2023-04-15T06:47:08;13.55;;;10.55;;
22924;SDS011;11628;51.072;3.712;2023-04-15T06:49:33;13.38;;;10.15;;
22924;SDS011;11628;51.072;3.712;2023-04-15T06:51:59;12.27;;;10.10;;
22924;SDS011;11628;51.072;3.712;2023-04-15T06:54:25;14.68;;;10.10;;
22924;SDS011;11628;51.072;3.712;2023-04-15T06:56:51;14.30;;;9.95;;
22924;SDS011;11628;51.072;3.712;2023-04-15T06:59:17;15.30;;;10.05;;
22924;SDS011;11628;51.072;3.712;2023-04-15T07:01:43;13.20;;;9.77;;
22924;SDS011;11628;51.072;3.712;2023-04-15T07:04:09;14.10;;;9.13;;
22924;SDS011;11628;51.072;3.712;2023-04-15T07:06:35;12.10;;;9.60;;
22924;SDS011;11628;51.072;3.712;2023-04-15T07:09:01;12.85;;;9.40;;
22924;SDS011;11628;51.072;3.712;2023-04-15T07:11:27;16.08;;;9.45;;
22924;SDS011;11628;51.072;3.712;2023-04-15T07:13:53;19.63;;;11.68;;
22924;SDS011;11628;51.072;3.712;2023-04-15T07:16:18;16.58;;;10.95;;
22924;SDS011;11628;51.072;3.712;2023-04-15T07:18:45;16.50;;;11.13;;
22924;SDS011;11628;51.072;3.712;2023-04-15T07:21:10;12.73;;;8.75;;
22924;SDS011;11628;51.072;3.712;2023-04-15T07:23:36;11.88;;;8.63;;
22924;SDS011;11628;51.072;3.712;2023-04-15T07:26:02;12.27;;;8.30;;
22924;SDS011;11628;51.072;3.712;2023-04-15T07:28:28;9.10;;;6.90;;
22924;SDS011;11628;51.072;3.712;2023-04-15T07:30:54;9.40;;;6.63;;
22924;SDS011;11628;51.072;3.712;2023-04-15T07:33:21;9.70;;;6.20;;
22924;SDS011;11628;51.072;3.712;2023-04-15T07:35:47;9.38;;;5.60;;
22924;SDS011;11628;51.072;3.712;2023-04-15T07:38:13;10.50;;;6.38;;
22924;SDS011;11628;51.072;3.712;2023-04-15T07:40:38;10.82;;;7.22;;
22924;SDS011;11628;51.072;3.712;2023-04-15T07:43:04;19.27;;;10.95;;
22924;SDS011;11628;51.072;3.712;2023-04-15T07:45:30;18.10;;;11.18;;
22924;SDS011;11628;51.072;3.712;2023-04-15T07:47:56;18.42;;;12.90;;
22924;SDS011;11628;51.072;3.712;2023-04-15T07:50:22;19.30;;;12.50;;
22924;SDS011;11628;51.072;3.712;2023-04-15T07:52:50;16.65;;;11.35;;
22924;SDS011;11628;51.072;3.712;2023-04-15T07:55:17;17.10;;;10.75;;
22924;SDS011;11628;51.072;3.712;2023-04-15T07:57:45;12.55;;;10.40;;
22924;SDS011;11628;51.072;3.712;2023-04-15T08:00:11;17.17;;;11.70;;
22924;SDS011;11628;51.072;3.712;2023-04-15T08:02:38;15.07;;;11.02;;
22924;SDS011;11628;51.072;3.712;2023-04-15T08:05:04;16.33;;;11.55;;
22924;SDS011;11628;51.072;3.712;2023-04-15T08:07:31;14.85;;;10.65;;
22924;SDS011;11628;51.072;3.712;2023-04-15T08:09:57;13.65;;;11.38;;
22924;SDS011;11628;51.072;3.712;2023-04-15T08:12:23;13.00;;;10.77;;
22924;SDS011;11628;51.072;3.712;2023-04-15T08:14:49;11.27;;;10.18;;
22924;SDS011;11628;51.072;3.712;2023-04-15T08:17:16;13.98;;;10.85;;
22924;SDS011;11628;51.072;3.712;2023-04-15T08:19:41;14.65;;;10.57;;
22924;SDS011;11628;51.072;3.712;2023-04-15T08:22:07;13.75;;;10.35;;
22924;SDS011;11628;51.072;3.712;2023-04-15T08:24:34;14.43;;;10.93;;
22924;SDS011;11628;51.072;3.712;2023-04-15T08:27:00;14.05;;;11.35;;
22924;SDS011;11628;51.072;3.712;2023-04-15T08:29:28;14.20;;;10.18;;
22924;SDS011;11628;51.072;3.712;2023-04-15T08:31:56;19.52;;;13.07;;
22924;SDS011;11628;51.072;3.712;2023-04-15T08:34:23;18.00;;;13.40;;
22924;SDS011;11628;51.072;3.712;2023-04-15T08:36:49;26.38;;;17.63;;
22924;SDS011;11628;51.072;3.712;2023-04-15T08:39:15;46.20;;;27.42;;
22924;SDS011;11628;51.072;3.712;2023-04-15T08:41:45;43.90;;;26.55;;
22924;SDS011;11628;51.072;3.712;2023-04-15T08:44:12;21.88;;;14.85;;
22924;SDS011;11628;51.072;3.712;2023-04-15T08:46:38;22.77;;;14.68;;
22924;SDS011;11628;51.072;3.712;2023-04-15T08:49:07;24.33;;;18.73;;
22924;SDS011;11628;51.072;3.712;2023-04-15T08:51:36;25.75;;;18.33;;
22924;SDS011;11628;51.072;3.712;2023-04-15T08:54:03;25.85;;;17.35;;
22924;SDS011;11628;51.072;3.712;2023-04-15T08:56:29;27.02;;;18.77;;
22924;SDS011;11628;51.072;3.712;2023-04-15T08:58:58;26.23;;;15.80;;
22924;SDS011;11628;51.072;3.712;2023-04-15T09:01:24;25.80;;;16.02;;
22924;SDS011;11628;51.072;3.712;2023-04-15T09:03:51;26.92;;;16.20;;
22924;SDS011;11628;51.072;3.712;2023-04-15T09:06:19;24.83;;;16.85;;
22924;SDS011;11628;51.072;3.712;2023-04-15T09:08:45;32.38;;;20.20;;
22924;SDS011;11628;51.072;3.712;2023-04-15T09:11:11;32.47;;;20.23;;
22924;SDS011;11628;51.072;3.712;2023-04-15T09:13:37;29.52;;;18.45;;
22924;SDS011;11628;51.072;3.712;2023-04-15T09:16:04;19.27;;;14.82;;
22924;SDS011;11628;51.072;3.712;2023-04-15T09:18:31;23.73;;;16.42;;
22924;SDS011;11628;51.072;3.712;2023-04-15T09:23:57;41.15;;;24.75;;
22924;SDS011;11628;51.072;3.712;2023-04-15T09:26:33;35.65;;;23.13;;
22924;SDS011;11628;51.072;3.712;2023-04-15T09:29:02;43.55;;;24.67;;
22924;SDS011;11628;51.072;3.712;2023-04-15T09:31:30;40.25;;;24.42;;
22924;SDS011;11628;51.072;3.712;2023-04-15T09:33:56;35.78;;;23.35;;
22924;SDS011;11628;51.072;3.712;2023-04-15T09:36:22;37.28;;;23.33;;
22924;SDS011;11628;51.072;3.712;2023-04-15T09:38:56;41.47;;;21.00;;
22924;SDS011;11628;51.072;3.712;2023-04-15T09:41:22;31.63;;;20.02;;
22924;SDS011;11628;51.072;3.712;2023-04-15T09:43:50;32.33;;;19.17;;
22924;SDS011;11628;51.072;3.712;2023-04-15T09:46:16;41.22;;;23.05;;
22924;SDS011;11628;51.072;3.712;2023-04-15T09:48:41;33.45;;;21.60;;
22924;SDS011;11628;51.072;3.712;2023-04-15T09:51:07;38.00;;;24.40;;
22924;SDS011;11628;51.072;3.712;2023-04-15T09:53:34;25.17;;;18.70;;
22924;SDS011;11628;51.072;3.712;2023-04-15T09:56:01;16.25;;;12.98;;
22924;SDS011;11628;51.072;3.712;2023-04-15T09:58:28;17.88;;;13.88;;
22924;SDS011;11628;51.072;3.712;2023-04-15T10:00:56;14.52;;;11.85;;
22924;SDS011;11628;51.072;3.712;2023-04-15T10:03:23;14.00;;;12.55;;
22924;SDS011;11628;51.072;3.712;2023-04-15T10:05:53;12.85;;;10.98;;
22924;SDS011;11628;51.072;3.712;2023-04-15T10:08:21;12.07;;;10.88;;
22924;SDS011;11628;51.072;3.712;2023-04-15T10:10:51;13.55;;;11.27;;
22924;SDS011;11628;51.072;3.712;2023-04-15T10:13:20;12.85;;;10.18;;
22924;SDS011;11628;51.072;3.712;2023-04-15T10:15:56;22.40;;;11.50;;
22924;SDS011;11628;51.072;3.712;2023-04-15T10:18:27;12.75;;;9.40;;
22924;SDS011;11628;51.072;3.712;2023-04-15T10:20:56;11.55;;;9.80;;
22924;SDS011;11628;51.072;3.712;2023-04-15T10:23:24;9.55;;;8.57;;
22924;SDS011;11628;51.072;3.712;2023-04-15T10:25:51;8.60;;;7.53;;
22924;SDS011;11628;51.072;3.712;2023-04-15T10:28:19;15.45;;;12.32;;
22924;SDS011;11628;51.072;3.712;2023-04-15T10:30:46;14.32;;;11.63;;
22924;SDS011;11628;51.072;3.712;2023-04-15T10:33:14;13.63;;;11.77;;
22924;SDS011;11628;51.072;3.712;2023-04-15T10:35:44;12.82;;;9.45;;
22924;SDS011;11628;51.072;3.712;2023-04-15T10:38:30;11.50;;;9.52;;
22924;SDS011;11628;51.072;3.712;2023-04-15T10:41:10;8.55;;;7.57;;
22924;SDS011;11628;51.072;3.712;2023-04-15T10:43:44;14.65;;;10.95;;
22924;SDS011;11628;51.072;3.712;2023-04-15T10:46:16;12.60;;;11.30;;
22924;SDS011;11628;51.072;3.712;2023-04-15T10:48:59;14.73;;;11.48;;
22924;SDS011;11628;51.072;3.712;2023-04-15T10:51:42;13.20;;;10.13;;
22924;SDS011;11628;51.072;3.712;2023-04-15T10:54:16;13.75;;;10.45;;
22924;SDS011;11628;51.072;3.712;2023-04-15T11:05:11;4.20;;;3.70;;
22924;SDS011;11628;51.072;3.712;2023-04-15T11:12:50;5.20;;;4.25;;
22924;SDS011;11628;51.072;3.712;2023-04-15T11:20:50;6.65;;;5.45;;
22924;SDS011;11628;51.072;3.712;2023-04-15T11:23:19;7.50;;;6.43;;
22924;SDS011;11628;51.072;3.712;2023-04-15T11:25:53;7.03;;;6.05;;
22924;SDS011;11628;51.072;3.712;2023-04-15T11:28:23;8.02;;;5.82;;
22924;SDS011;11628;51.072;3.712;2023-04-15T11:30:50;7.88;;;6.50;;
22924;SDS011;11628;51.072;3.712;2023-04-15T11:33:16;8.70;;;5.70;;
22924;SDS011;11628;51.072;3.712;2023-04-15T11:35:41;8.77;;;5.30;;
22924;SDS011;11628;51.072;3.712;2023-04-15T11:38:08;7.00;;;5.95;;
22924;SDS011;11628;51.072;3.712;2023-04-15T11:40:36;7.70;;;6.13;;
22924;SDS011;11628;51.072;3.712;2023-04-15T11:43:23;9.57;;;6.82;;
22924;SDS011;11628;51.072;3.712;2023-04-15T11:45:53;8.55;;;5.70;;
22924;SDS011;11628;51.072;3.712;2023-04-15T11:48:24;5.20;;;4.75;;
22924;SDS011;11628;51.072;3.712;2023-04-15T11:50:52;6.28;;;4.43;;
22924;SDS011;11628;51.072;3.712;2023-04-15T11:53:19;5.78;;;4.65;;
22924;SDS011;11628;51.072;3.712;2023-04-15T11:55:46;5.95;;;4.35;;
22924;SDS011;11628;51.072;3.712;2023-04-15T11:58:17;5.90;;;4.43;;
22924;SDS011;11628;51.072;3.712;2023-04-15T12:00:54;6.65;;;5.75;;
22924;SDS011;11628;51.072;3.712;2023-04-15T12:06:06;7.73;;;6.67;;
22924;SDS011;11628;51.072;3.712;2023-04-15T12:16:53;5.43;;;4.97;;
22924;SDS011;11628;51.072;3.712;2023-04-15T12:19:24;8.05;;;6.05;;
22924;SDS011;11628;51.072;3.712;2023-04-15T12:21:53;5.35;;;4.82;;
22924;SDS011;11628;51.072;3.712;2023-04-15T12:24:23;5.40;;;5.00;;
22924;SDS011;11628;51.072;3.712;2023-04-15T12:26:51;4.75;;;4.35;;
22924;SDS011;11628;51.072;3.712;2023-04-15T12:29:26;6.95;;;4.80;;
22924;SDS011;11628;51.072;3.712;2023-04-15T12:32:08;6.75;;;5.13;;
22924;SDS011;11628;51.072;3.712;2023-04-15T12:37:06;5.40;;;4.90;;
22924;SDS011;11628;51.072;3.712;2023-04-15T12:39:37;5.50;;;4.97;;
22924;SDS011;11628;51.072;3.712;2023-04-15T12:42:05;4.70;;;4.30;;
22924;SDS011;11628;51.072;3.712;2023-04-15T12:44:31;5.05;;;4.55;;
22924;SDS011;11628;51.072;3.712;2023-04-15T12:46:57;4.65;;;4.13;;
22924;SDS011;11628;51.072;3.712;2023-04-15T12:49:24;5.70;;;4.25;;
22924;SDS011;11628;51.072;3.712;2023-04-15T12:51:51;4.72;;;3.83;;
22924;SDS011;11628;51.072;3.712;2023-04-15T12:54:18;5.30;;;3.50;;
22924;SDS011;11628;51.072;3.712;2023-04-15T12:56:45;5.45;;;4.15;;
22924;SDS011;11628;51.072;3.712;2023-04-15T12:59:12;3.92;;;3.55;;
22924;SDS011;11628;51.072;3.712;2023-04-15T13:01:39;3.95;;;3.35;;
22924;SDS011;11628;51.072;3.712;2023-04-15T13:04:05;5.20;;;4.00;;
22924;SDS011;11628;51.072;3.712;2023-04-15T13:06:31;5.55;;;3.80;;
22924;SDS011;11628;51.072;3.712;2023-04-15T13:09:00;5.05;;;3.63;;
22924;SDS011;11628;51.072;3.712;2023-04-15T13:11:27;4.13;;;3.75;;
22924;SDS011;11628;51.072;3.712;2023-04-15T13:14:01;4.53;;;3.53;;
22924;SDS011;11628;51.072;3.712;2023-04-15T13:16:28;5.20;;;4.05;;
22924;SDS011;11628;51.072;3.712;2023-04-15T13:18:54;5.32;;;3.78;;
22924;SDS011;11628;51.072;3.712;2023-04-15T13:21:19;4.63;;;3.45;;
22924;SDS011;11628;51.072;3.712;2023-04-15T13:23:45;5.10;;;3.78;;
22924;SDS011;11628;51.072;3.712;2023-04-15T13:26:12;4.88;;;3.03;;
22924;SDS011;11628;51.072;3.712;2023-04-15T13:28:38;6.50;;;5.57;;
22924;SDS011;11628;51.072;3.712;2023-04-15T13:31:04;4.70;;;2.83;;
22924;SDS011;11628;51.072;3.712;2023-04-15T13:33:30;3.08;;;2.40;;
22924;SDS011;11628;51.072;3.712;2023-04-15T13:35:55;3.95;;;2.83;;
22924;SDS011;11628;51.072;3.712;2023-04-15T13:38:21;6.03;;;3.88;;
22924;SDS011;11628;51.072;3.712;2023-04-15T13:40:49;6.20;;;5.60;;
22924;SDS011;11628;51.072;3.712;2023-04-15T13:43:15;9.40;;;6.88;;
22924;SDS011;11628;51.072;3.712;2023-04-15T13:45:41;7.82;;;6.78;;
22924;SDS011;11628;51.072;3.712;2023-04-15T13:48:07;9.32;;;6.70;;
22924;SDS011;11628;51.072;3.712;2023-04-15T13:50:33;9.40;;;7.80;;
22924;SDS011;11628;51.072;3.712;2023-04-15T13:52:59;7.40;;;6.70;;
22924;SDS011;11628;51.072;3.712;2023-04-15T13:55:25;8.52;;;7.72;;
22924;SDS011;11628;51.072;3.712;2023-04-15T13:57:51;10.38;;;8.75;;
22924;SDS011;11628;51.072;3.712;2023-04-15T14:00:17;8.10;;;7.30;;
22924;SDS011;11628;51.072;3.712;2023-04-15T14:02:42;8.52;;;7.40;;
22924;SDS011;11628;51.072;3.712;2023-04-15T14:05:08;8.05;;;6.97;;
22924;SDS011;11628;51.072;3.712;2023-04-15T14:07:34;8.45;;;7.22;;
22924;SDS011;11628;51.072;3.712;2023-04-15T14:10:00;8.88;;;8.07;;
22924;SDS011;11628;51.072;3.712;2023-04-15T14:12:26;9.02;;;7.60;;
22924;SDS011;11628;51.072;3.712;2023-04-15T14:14:52;14.52;;;13.13;;
22924;SDS011;11628;51.072;3.712;2023-04-15T14:17:18;9.10;;;7.47;;
22924;SDS011;11628;51.072;3.712;2023-04-15T14:19:43;8.57;;;7.72;;
22924;SDS011;11628;51.072;3.712;2023-04-15T14:22:09;7.78;;;6.30;;
22924;SDS011;11628;51.072;3.712;2023-04-15T14:24:35;8.88;;;6.97;;
22924;SDS011;11628;51.072;3.712;2023-04-15T14:27:01;7.32;;;6.22;;
22924;SDS011;11628;51.072;3.712;2023-04-15T14:29:27;7.63;;;6.80;;
22924;SDS011;11628;51.072;3.712;2023-04-15T14:31:53;7.82;;;6.75;;
22924;SDS011;11628;51.072;3.712;2023-04-15T14:34:21;6.75;;;6.13;;
22924;SDS011;11628;51.072;3.712;2023-04-15T14:36:49;7.28;;;6.40;;
22924;SDS011;11628;51.072;3.712;2023-04-15T14:39:16;7.03;;;4.78;;
22924;SDS011;11628;51.072;3.712;2023-04-15T14:41:41;6.85;;;5.07;;
22924;SDS011;11628;51.072;3.712;2023-04-15T14:44:07;7.05;;;4.78;;
22924;SDS011;11628;51.072;3.712;2023-04-15T14:46:35;7.90;;;4.25;;
22924;SDS011;11628;51.072;3.712;2023-04-15T14:49:01;7.28;;;4.35;;
22924;SDS011;11628;51.072;3.712;2023-04-15T14:51:27;8.15;;;3.83;;
22924;SDS011;11628;51.072;3.712;2023-04-15T14:53:53;4.15;;;3.33;;
22924;SDS011;11628;51.072;3.712;2023-04-15T14:56:18;10.77;;;5.03;;
22924;SDS011;11628;51.072;3.712;2023-04-15T14:58:44;4.70;;;4.25;;
22924;SDS011;11628;51.072;3.712;2023-04-15T15:01:10;6.18;;;2.97;;
22924;SDS011;11628;51.072;3.712;2023-04-15T15:03:36;5.72;;;2.55;;
22924;SDS011;11628;51.072;3.712;2023-04-15T15:06:02;5.93;;;2.50;;
22924;SDS011;11628;51.072;3.712;2023-04-15T15:08:28;6.95;;;2.30;;